createdAt,value
2022-08-07T00:02:57.251Z,101355.87
2022-08-07T00:05:46.370Z,101356.80
2022-08-07T00:08:36.417Z,101356.06
2022-08-07T00:11:33.399Z,101353.61
2022-08-07T00:14:14.848Z,101352.41
2022-08-07T00:17:10.494Z,101359.64
2022-08-07T00:20:03.300Z,101358.92
2022-08-07T00:22:53.959Z,101363.79
2022-08-07T00:25:42.561Z,101366.70
2022-08-07T00:28:45.892Z,101366.63
2022-08-07T00:31:44.401Z,101362.29
2022-08-07T00:34:38.911Z,101364.14
2022-08-07T00:37:29.423Z,101364.11
2022-08-07T00:40:40.515Z,101362.33
2022-08-07T00:44:01.151Z,101362.14
2022-08-07T00:46:38.266Z,101356.60
2022-08-07T00:50:20.812Z,101359.19
2022-08-07T00:52:38.899Z,101361.63
2022-08-07T00:56:02.765Z,101360.95
2022-08-07T00:58:43.822Z,101365.05
2022-08-07T01:01:44.543Z,101369.92
2022-08-07T01:04:41.356Z,101368.11
2022-08-07T01:07:32.376Z,101368.13
2022-08-07T01:10:22.845Z,101367.53
2022-08-07T01:13:11.513Z,101370.11
2022-08-07T01:16:07.635Z,101371.59
2022-08-07T01:18:56.739Z,101373.77
2022-08-07T01:21:48.045Z,101374.02
2022-08-07T01:24:37.935Z,101372.46
2022-08-07T01:27:31.978Z,101373.75
2022-08-07T01:30:20.128Z,101373.47
2022-08-07T01:33:16.491Z,101373.75
2022-08-07T01:36:11.448Z,101372.38
2022-08-07T01:39:09.651Z,101373.20
2022-08-07T01:42:37.910Z,101371.83
2022-08-07T01:45:18.329Z,101371.70
2022-08-07T01:48:21.162Z,101369.70
2022-08-07T01:52:02.656Z,101374.14
2022-08-07T01:54:36.849Z,101370.79
2022-08-07T01:57:29.528Z,101369.15
2022-08-07T02:00:28.930Z,101367.73
2022-08-07T02:03:32.047Z,101372.20
2022-08-07T02:06:33.495Z,101373.39
2022-08-07T02:09:33.916Z,101371.67
2022-08-07T02:12:41.379Z,101373.81
2022-08-07T02:15:38.949Z,101368.89
2022-08-07T02:18:30.773Z,101366.02
2022-08-07T02:21:22.186Z,101364.67
2022-08-07T02:24:12.822Z,101364.34
2022-08-07T02:27:10.826Z,101362.98
2022-08-07T02:30:07.150Z,101366.69
2022-08-07T02:33:00.808Z,101363.69
2022-08-07T02:36:29.071Z,101361.39
2022-08-07T02:39:16.970Z,101365.40
2022-08-07T02:42:21.574Z,101359.41
2022-08-07T02:45:59.235Z,101369.84
2022-08-07T02:48:22.639Z,101373.05
2022-08-07T02:51:42.829Z,101371.07
2022-08-07T02:54:26.623Z,101374.15
2022-08-07T02:57:19.141Z,101375.80
2022-08-07T03:00:15.406Z,101373.70
2022-08-07T03:03:13.597Z,101378.55
2022-08-07T03:06:03.262Z,101378.05
2022-08-07T03:08:53.391Z,101374.28
2022-08-07T03:11:52.605Z,101375.29
2022-08-07T03:14:51.993Z,101383.47
2022-08-07T03:17:52.933Z,101384.92
2022-08-07T03:20:46.615Z,101381.67
2022-08-07T03:23:34.067Z,101380.91
2022-08-07T03:26:50.894Z,101382.75
2022-08-07T03:29:51.024Z,101381.77
2022-08-07T03:32:49.148Z,101383.79
2022-08-07T03:35:50.448Z,101381.59
2022-08-07T03:38:41.301Z,101384.52
2022-08-07T03:41:42.359Z,101381.31
2022-08-07T03:44:38.747Z,101381.68
2022-08-07T03:47:29.551Z,101383.56
2022-08-07T03:50:29.405Z,101385.40
2022-08-07T03:53:18.148Z,101387.30
2022-08-07T03:56:13.745Z,101386.73
2022-08-07T03:59:08.868Z,101389.00
2022-08-07T04:02:00.293Z,101389.73
2022-08-07T04:04:45.220Z,101391.29
2022-08-07T04:07:42.685Z,101396.24
2022-08-07T04:10:35.250Z,101399.36
2022-08-07T04:13:28.089Z,101401.63
2022-08-07T04:16:38.064Z,101405.20
2022-08-07T04:19:50.927Z,101403.52
2022-08-07T04:22:53.585Z,101406.89
2022-08-07T04:25:43.207Z,101406.69
2022-08-07T04:28:32.382Z,101410.02
2022-08-07T04:31:39.225Z,101410.65
2022-08-07T04:34:39.399Z,101406.98
2022-08-07T04:37:28.889Z,101411.67
2022-08-07T04:40:17.608Z,101412.17
2022-08-07T04:43:10.780Z,101416.41
2022-08-07T04:46:12.470Z,101420.45
2022-08-07T04:49:24.572Z,101420.02
2022-08-07T04:52:26.501Z,101420.77
2022-08-07T04:58:15.999Z,101422.77
2022-08-07T04:59:18.288Z,101426.24
2022-08-07T05:02:04.190Z,101427.40
2022-08-07T05:05:00.759Z,101433.29
2022-08-07T05:07:56.961Z,101436.80
2022-08-07T05:10:51.221Z,101441.04
2022-08-07T05:14:54.218Z,101444.58
2022-08-07T05:17:11.980Z,101448.25
2022-08-07T05:20:04.378Z,101449.37
2022-08-07T05:23:03.959Z,101452.17
2022-08-07T05:26:15.652Z,101454.66
2022-08-07T05:29:08.043Z,101450.20
2022-08-07T05:31:59.326Z,101454.34
2022-08-07T05:34:49.713Z,101456.23
2022-08-07T05:37:42.384Z,101455.05
2022-08-07T05:40:32.167Z,101454.03
2022-08-07T05:43:49.980Z,101456.59
2022-08-07T05:46:34.099Z,101456.70
2022-08-07T05:49:23.981Z,101457.91
2022-08-07T05:52:12.777Z,101457.56
2022-08-07T05:55:10.210Z,101459.02
2022-08-07T05:58:01.679Z,101460.24
2022-08-07T06:00:53.427Z,101459.75
2022-08-07T06:03:56.849Z,101456.32
2022-08-07T06:06:56.696Z,101459.59
2022-08-07T06:10:04.177Z,101456.50
2022-08-07T06:12:54.654Z,101458.02
2022-08-07T06:15:44.247Z,101454.09
2022-08-07T06:18:36.175Z,101455.48
2022-08-07T06:22:14.460Z,101456.48
2022-08-07T06:24:53.349Z,101455.15
2022-08-07T06:28:01.117Z,101458.33
2022-08-07T06:30:52.865Z,101457.52
2022-08-07T06:33:42.454Z,101457.88
2022-08-07T06:36:35.308Z,101461.33
2022-08-07T06:40:12.913Z,101460.11
2022-08-07T06:42:36.885Z,101463.55
2022-08-07T06:45:44.822Z,101465.56
2022-08-07T06:48:33.883Z,101471.05
2022-08-07T06:51:33.190Z,101471.95
2022-08-07T06:55:32.931Z,101475.92
2022-08-07T06:57:39.867Z,101479.04
2022-08-07T07:00:42.844Z,101477.41
2022-08-07T07:03:47.951Z,101479.21
2022-08-07T07:07:00.287Z,101484.14
2022-08-07T07:09:51.654Z,101482.40
2022-08-07T07:12:53.391Z,101481.84
2022-08-07T07:15:51.416Z,101482.31
2022-08-07T07:18:48.212Z,101477.35
2022-08-07T07:22:04.633Z,101471.67
2022-08-07T07:25:02.407Z,101472.30
2022-08-07T07:28:42.537Z,101470.88
2022-08-07T07:31:26.701Z,101462.72
2022-08-07T07:34:30.876Z,101459.50
2022-08-07T07:37:44.333Z,101461.41
2022-08-07T07:40:33.423Z,101459.27
2022-08-07T07:43:27.407Z,101459.95
2022-08-07T07:46:54.229Z,101459.77
2022-08-07T07:50:32.646Z,101458.72
2022-08-07T07:52:57.730Z,101463.55
2022-08-07T07:55:54.887Z,101458.27
2022-08-07T07:58:48.667Z,101456.81
2022-08-07T08:02:04.099Z,101457.36
2022-08-07T08:04:55.335Z,101458.22
2022-08-07T08:07:51.454Z,101456.85
2022-08-07T08:10:49.089Z,101457.64
2022-08-07T08:13:54.312Z,101458.33
2022-08-07T08:16:50.310Z,101453.73
2022-08-07T08:20:18.824Z,101456.56
2022-08-07T08:23:11.400Z,101454.05
2022-08-07T08:26:25.148Z,101456.34
2022-08-07T08:29:18.572Z,101452.04
2022-08-07T08:32:17.972Z,101449.79
2022-08-07T08:35:12.096Z,101453.60
2022-08-07T08:38:08.532Z,101457.31
2022-08-07T08:41:02.888Z,101459.14
2022-08-07T08:44:01.511Z,101452.30
2022-08-07T08:47:00.572Z,101459.89
2022-08-07T08:50:05.360Z,101465.94
2022-08-07T08:53:03.106Z,101467.81
2022-08-07T08:55:59.026Z,101464.20
2022-08-07T08:58:50.597Z,101459.20
2022-08-07T09:01:49.831Z,101459.02
2022-08-07T09:04:44.431Z,101457.95
2022-08-07T09:07:46.307Z,101454.31
2022-08-07T09:10:55.574Z,101455.38
2022-08-07T09:14:03.523Z,101456.98
2022-08-07T09:16:59.893Z,101450.27
2022-08-07T09:19:57.059Z,101443.64
2022-08-07T09:24:30.376Z,101441.55
2022-08-07T09:26:24.684Z,101443.80
2022-08-07T09:30:06.615Z,101444.64
2022-08-07T09:32:54.165Z,101445.46
2022-08-07T09:36:04.797Z,101441.40
2022-08-07T09:39:11.433Z,101436.19
2022-08-07T09:42:33.548Z,101430.80
2022-08-07T09:47:51.425Z,101429.44
2022-08-07T09:49:59.502Z,101424.92
2022-08-07T09:52:15.973Z,101420.17
2022-08-07T09:55:29.318Z,101410.13
2022-08-07T09:58:51.361Z,101404.83
2022-08-07T10:02:05.006Z,101409.17
2022-08-07T10:05:13.930Z,101410.03
2022-08-07T10:08:15.916Z,101405.41
2022-08-07T10:11:16.906Z,101407.55
2022-08-07T10:14:22.951Z,101400.19
2022-08-07T10:18:01.119Z,101397.91
2022-08-07T10:21:20.010Z,101391.67
2022-08-07T10:24:33.401Z,101387.94
2022-08-07T10:28:02.490Z,101391.94
2022-08-07T10:31:06.132Z,101393.07
2022-08-07T10:34:17.909Z,101395.48
2022-08-07T10:37:26.406Z,101397.17
2022-08-07T10:40:40.178Z,101392.32
2022-08-07T10:43:35.094Z,101392.67
2022-08-07T10:46:29.573Z,101390.39
2022-08-07T10:49:49.094Z,101383.15
2022-08-07T10:52:51.156Z,101382.45
2022-08-07T10:55:46.159Z,101381.19
2022-08-07T10:58:59.933Z,101377.77
2022-08-07T11:02:05.349Z,101372.89
2022-08-07T11:05:14.305Z,101372.54
2022-08-07T11:08:12.528Z,101371.01
2022-08-07T11:11:13.882Z,101370.66
2022-08-07T11:14:45.145Z,101372.70
2022-08-07T11:17:43.512Z,101366.84
2022-08-07T11:20:42.127Z,101365.56
2022-08-07T11:23:50.865Z,101361.85
2022-08-07T11:26:50.024Z,101359.27
2022-08-07T11:29:48.370Z,101358.28
2022-08-07T11:32:52.743Z,101353.16
2022-08-07T11:35:59.626Z,101353.00
2022-08-07T11:39:14.560Z,101347.75
2022-08-07T11:42:19.040Z,101350.35
2022-08-07T11:45:23.852Z,101349.73
2022-08-07T11:49:27.667Z,101351.53
2022-08-07T11:52:28.937Z,101344.04
2022-08-07T11:56:09.620Z,101336.92
2022-08-07T12:00:10.404Z,101335.47
2022-08-07T12:02:33.320Z,101331.25
2022-08-07T12:05:47.472Z,101329.02
2022-08-07T12:08:42.537Z,101332.11
2022-08-07T12:11:56.118Z,101329.85
2022-08-07T12:15:00.104Z,101325.25
2022-08-07T12:17:59.047Z,101321.13
2022-08-07T12:21:01.725Z,101319.45
2022-08-07T12:24:07.345Z,101315.46
2022-08-07T12:27:13.281Z,101316.98
2022-08-07T12:30:10.824Z,101314.44
2022-08-07T12:33:09.401Z,101310.80
2022-08-07T12:36:11.041Z,101309.59
2022-08-07T12:39:01.225Z,101304.80
2022-08-07T12:41:53.248Z,101306.71
2022-08-07T12:44:45.645Z,101303.83
2022-08-07T12:47:45.525Z,101304.32
2022-08-07T12:50:48.838Z,101302.94
2022-08-07T12:54:03.447Z,101299.29
2022-08-07T12:56:59.181Z,101297.45
2022-08-07T12:59:53.808Z,101297.77
2022-08-07T13:03:00.665Z,101293.61
2022-08-07T13:06:22.018Z,101293.00
2022-08-07T13:10:19.470Z,101295.39
2022-08-07T13:12:51.541Z,101287.55
2022-08-07T13:15:50.926Z,101285.59
2022-08-07T13:18:42.951Z,101282.67
2022-08-07T13:21:54.951Z,101278.55
2022-08-07T13:24:56.485Z,101272.14
2022-08-07T13:28:12.371Z,101272.63
2022-08-07T13:31:06.437Z,101271.25
2022-08-07T13:34:33.768Z,101268.15
2022-08-07T13:37:27.996Z,101264.47
2022-08-07T13:40:35.529Z,101264.45
2022-08-07T13:43:34.252Z,101269.98
2022-08-07T13:46:32.901Z,101263.11
2022-08-07T13:50:33.522Z,101265.64
2022-08-07T13:52:40.842Z,101260.92
2022-08-07T13:55:34.031Z,101256.02
2022-08-07T13:58:54.219Z,101252.03
2022-08-07T14:02:04.830Z,101254.73
2022-08-07T14:05:00.255Z,101257.67
2022-08-07T14:08:00.264Z,101254.73
2022-08-07T14:11:01.969Z,101248.23
2022-08-07T14:14:08.169Z,101247.21
2022-08-07T14:16:59.731Z,101244.38
2022-08-07T14:20:40.817Z,101241.70
2022-08-07T14:23:59.498Z,101237.27
2022-08-07T14:26:50.229Z,101232.61
2022-08-07T14:30:05.354Z,101227.73
2022-08-07T14:33:01.236Z,101226.61
2022-08-07T14:35:47.372Z,101219.39
2022-08-07T14:38:36.870Z,101217.55
2022-08-07T14:41:34.203Z,101219.10
2022-08-07T14:44:47.463Z,101213.71
2022-08-07T14:47:44.716Z,101216.15
2022-08-07T14:50:42.138Z,101212.52
2022-08-07T14:54:08.779Z,101207.23
2022-08-07T14:56:43.359Z,101205.31
2022-08-07T15:02:47.172Z,101203.09
2022-08-07T15:05:54.971Z,101207.42
2022-08-07T15:08:54.763Z,101206.45
2022-08-07T15:12:00.308Z,101205.02
2022-08-07T15:14:57.731Z,101205.23
2022-08-07T15:17:55.934Z,101202.45
2022-08-07T15:20:55.265Z,101199.05
2022-08-07T15:27:06.195Z,101196.20
2022-08-07T15:30:08.844Z,101192.90
2022-08-07T15:37:02.534Z,101186.63
2022-08-07T15:39:26.665Z,101185.67
2022-08-07T15:42:51.625Z,101180.12
2022-08-07T15:45:57.577Z,101178.23
2022-08-07T15:49:03.490Z,101173.91
2022-08-07T15:52:03.146Z,101170.49
2022-08-07T15:54:56.305Z,101167.03
2022-08-07T15:57:54.294Z,101171.52
2022-08-07T16:00:50.971Z,101170.95
2022-08-07T16:03:47.052Z,101169.02
2022-08-07T16:06:42.547Z,101169.92
2022-08-07T16:09:48.848Z,101167.54
2022-08-07T16:13:05.435Z,101166.75
2022-08-07T16:16:48.166Z,101159.97
2022-08-07T16:19:58.995Z,101162.20
2022-08-07T16:23:11.791Z,101164.14
2022-08-07T16:26:14.392Z,101156.89
2022-08-07T16:30:09.702Z,101157.64
2022-08-07T16:32:38.480Z,101161.62
2022-08-07T16:35:56.925Z,101159.69
2022-08-07T16:39:16.497Z,101157.95
2022-08-07T16:42:29.695Z,101156.63
2022-08-07T16:46:47.168Z,101156.65
2022-08-07T16:50:28.932Z,101160.74
2022-08-07T16:52:55.825Z,101161.92
2022-08-07T16:55:53.320Z,101157.85
2022-08-07T16:59:11.145Z,101162.61
2022-08-07T17:02:53.412Z,101162.87
2022-08-07T17:06:28.284Z,101169.88
2022-08-07T17:10:07.007Z,101168.22
2022-08-07T17:12:44.391Z,101167.13
2022-08-07T17:15:50.929Z,101170.60
2022-08-07T17:18:49.078Z,101173.67
2022-08-07T17:21:50.728Z,101181.95
2022-08-07T17:24:55.632Z,101178.08
2022-08-07T17:27:53.960Z,101183.43
2022-08-07T17:30:58.447Z,101184.74
2022-08-07T17:34:15.313Z,101184.14
2022-08-07T17:37:14.359Z,101184.31
2022-08-07T17:40:30.549Z,101185.03
2022-08-07T17:44:02.683Z,101185.32
2022-08-07T17:46:47.423Z,101189.13
2022-08-07T17:49:51.542Z,101197.73
2022-08-07T17:52:47.212Z,101199.39
2022-08-07T17:56:00.762Z,101200.86
2022-08-07T17:58:57.373Z,101200.38
2022-08-07T18:01:56.774Z,101206.80
2022-08-07T18:04:55.746Z,101208.68
2022-08-07T18:07:58.777Z,101210.55
2022-08-07T18:12:06.651Z,101206.79
2022-08-07T18:14:23.757Z,101206.52
2022-08-07T18:18:46.072Z,101203.34
2022-08-07T18:21:07.325Z,101207.55
2022-08-07T18:24:07.368Z,101207.09
2022-08-07T18:27:38.707Z,101209.56
2022-08-07T18:30:38.354Z,101211.38
2022-08-07T18:34:03.087Z,101213.50
2022-08-07T18:37:09.641Z,101216.14
2022-08-07T18:40:40.597Z,101218.92
2022-08-07T18:43:43.465Z,101224.33
2022-08-07T18:46:46.747Z,101225.73
2022-08-07T18:50:33.053Z,101230.23
2022-08-07T18:53:13.963Z,101232.47
2022-08-07T18:56:16.394Z,101236.17
2022-08-07T18:59:48.084Z,101234.88
2022-08-07T19:02:42.682Z,101235.14
2022-08-07T19:06:04.333Z,101236.60
2022-08-07T19:09:09.535Z,101239.73
2022-08-07T19:12:26.539Z,101238.40
2022-08-07T19:16:02.500Z,101241.63
2022-08-07T19:18:35.717Z,101245.56
2022-08-07T19:21:47.884Z,101238.18
2022-08-07T19:24:48.161Z,101238.00
2022-08-07T19:28:30.838Z,101239.17
2022-08-07T19:31:43.721Z,101237.70
2022-08-07T19:34:11.416Z,101243.42
2022-08-07T19:37:10.327Z,101238.84
2022-08-07T19:40:02.418Z,101245.69
2022-08-07T19:42:54.360Z,101245.55
2022-08-07T19:46:04.846Z,101246.90
2022-08-07T19:49:15.797Z,101245.74
2022-08-07T19:52:05.881Z,101248.80
2022-08-07T19:55:13.835Z,101248.21
2022-08-07T19:58:13.446Z,101251.21
2022-08-07T20:01:05.010Z,101251.27
2022-08-07T20:04:02.295Z,101251.03
2022-08-07T20:06:54.070Z,101250.02
2022-08-07T20:10:36.213Z,101254.45
2022-08-07T20:13:01.494Z,101254.49
2022-08-07T20:15:58.133Z,101258.94
2022-08-07T20:18:48.311Z,101258.31
2022-08-07T20:21:46.754Z,101258.74
2022-08-07T20:24:47.355Z,101254.90
2022-08-07T20:27:48.172Z,101257.25
2022-08-07T20:30:50.135Z,101260.45
2022-08-07T20:33:41.799Z,101260.51
2022-08-07T20:36:33.009Z,101260.91
2022-08-07T20:40:03.625Z,101260.08
2022-08-07T20:42:56.109Z,101264.48
2022-08-07T20:46:27.060Z,101263.23
2022-08-07T20:48:57.990Z,101258.81
2022-08-07T20:51:51.055Z,101258.61
2022-08-07T20:54:53.342Z,101261.25
2022-08-07T20:58:02.283Z,101259.91
2022-08-07T21:01:00.904Z,101256.91
2022-08-07T21:04:19.876Z,101254.02
2022-08-07T21:07:14.791Z,101252.14
2022-08-07T21:10:14.701Z,101253.66
2022-08-07T21:13:18.814Z,101253.16
2022-08-07T21:16:14.878Z,101255.65
2022-08-07T21:19:19.527Z,101257.94
2022-08-07T21:22:14.779Z,101258.94
2022-08-07T21:25:13.334Z,101258.54
2022-08-07T21:28:47.636Z,101257.76
2022-08-07T21:32:42.293Z,101258.98
2022-08-07T21:34:57.225Z,101260.38
2022-08-07T21:37:58.324Z,101259.97
2022-08-07T21:40:59.110Z,101254.98
2022-08-07T21:43:56.874Z,101258.31
2022-08-07T21:46:52.790Z,101258.66
2022-08-07T21:50:02.496Z,101256.35
2022-08-07T21:53:07.772Z,101256.40
2022-08-07T21:56:16.710Z,101255.98
2022-08-07T22:00:03.126Z,101255.70
2022-08-07T22:02:53.518Z,101257.89
2022-08-07T22:05:49.727Z,101260.22
2022-08-07T22:08:44.230Z,101260.98
2022-08-07T22:12:05.665Z,101256.80
2022-08-07T22:15:02.206Z,101261.73
2022-08-07T22:17:59.764Z,101263.70
2022-08-07T22:20:54.567Z,101261.34
2022-08-07T22:23:52.649Z,101260.29
2022-08-07T22:26:46.983Z,101263.32
2022-08-07T22:29:49.791Z,101271.04
2022-08-07T22:32:55.681Z,101269.14
2022-08-07T22:35:54.483Z,101267.70
2022-08-07T22:38:52.566Z,101262.84
2022-08-07T22:42:03.599Z,101260.00
2022-08-07T22:44:58.586Z,101264.86
2022-08-07T22:48:54.886Z,101265.95
2022-08-07T22:51:49.357Z,101267.75
2022-08-07T22:55:22.376Z,101269.28
2022-08-07T22:58:37.651Z,101269.65
2022-08-07T23:01:51.227Z,101267.46
2022-08-07T23:06:07.469Z,101272.40
2022-08-07T23:08:30.195Z,101274.30
2022-08-07T23:11:35.138Z,101278.39
2022-08-07T23:14:48.461Z,101277.70
2022-08-07T23:17:50.069Z,101277.26
2022-08-07T23:20:58.907Z,101283.35
2022-08-07T23:24:11.919Z,101283.20
2022-08-07T23:27:33.844Z,101280.61
2022-08-07T23:30:36.076Z,101285.77
2022-08-07T23:34:34.700Z,101285.73
2022-08-07T23:37:37.640Z,101292.34
2022-08-07T23:48:28.942Z,101291.98
2022-08-07T23:53:05.707Z,101294.30
2022-08-07T23:54:46.421Z,101294.68
2022-08-07T23:57:44.224Z,101295.14
